createdAt,value
2022-12-18T00:02:13.657Z,48.40
2022-12-18T00:04:40.380Z,48.55
2022-12-18T00:07:07.104Z,49.72
2022-12-18T00:09:39.975Z,47.28
2022-12-18T00:14:43.117Z,49.08
2022-12-18T00:17:10.163Z,48.67
2022-12-18T00:19:36.889Z,48.45
2022-12-18T00:22:03.817Z,46.72
2022-12-18T00:24:30.508Z,46.92
2022-12-18T00:26:57.188Z,48.67
2022-12-18T00:29:24.024Z,45.47
2022-12-18T00:31:50.793Z,48.42
2022-12-18T00:34:17.563Z,46.67
2022-12-18T00:36:44.295Z,48.53
2022-12-18T00:39:11.753Z,47.97
2022-12-18T00:41:57.085Z,46.78
2022-12-18T00:44:23.733Z,46.72
2022-12-18T00:46:50.635Z,44.17
2022-12-18T00:49:18.920Z,45.88
2022-12-18T00:51:46.469Z,45.25
2022-12-18T00:54:13.174Z,47.83
2022-12-18T00:56:48.476Z,45.78
2022-12-18T00:59:16.477Z,47.20
2022-12-18T01:01:43.817Z,46.72
2022-12-18T01:04:10.660Z,47.15
2022-12-18T01:06:37.347Z,46.80
2022-12-18T01:09:04.359Z,47.65
2022-12-18T01:11:31.586Z,46.90
2022-12-18T01:13:58.253Z,45.88
2022-12-18T01:16:24.962Z,45.67
2022-12-18T01:18:55.646Z,45.58
2022-12-18T01:21:22.970Z,44.90
2022-12-18T01:23:53.420Z,43.70
2022-12-18T01:26:20.311Z,43.50
2022-12-18T01:28:47.028Z,44.70
2022-12-18T01:31:29.290Z,42.28
2022-12-18T01:33:56.756Z,45.88
2022-12-18T01:36:31.267Z,41.50
2022-12-18T01:38:59.973Z,42.53
2022-12-18T01:41:52.894Z,43.03
2022-12-18T01:44:47.684Z,38.65
2022-12-18T01:47:54.038Z,41.20
2022-12-18T01:50:23.223Z,43.83
2022-12-18T01:52:57.927Z,41.63
2022-12-18T01:55:26.358Z,41.00
2022-12-18T01:57:57.937Z,42.00
2022-12-18T02:00:24.989Z,43.10
2022-12-18T02:02:52.346Z,42.63
2022-12-18T02:05:23.950Z,42.25
2022-12-18T02:08:15.587Z,45.50
2022-12-18T02:10:54.275Z,44.25
2022-12-18T02:13:42.144Z,42.90
2022-12-18T02:16:40.996Z,44.03
2022-12-18T02:19:25.628Z,42.45
2022-12-18T02:22:18.729Z,44.03
2022-12-18T02:25:13.486Z,41.75
2022-12-18T02:27:40.487Z,42.08
2022-12-18T02:30:08.041Z,41.85
2022-12-18T02:32:41.496Z,41.78
2022-12-18T02:35:12.546Z,34.15
2022-12-18T02:37:39.254Z,41.17
2022-12-18T02:40:06.524Z,43.83
2022-12-18T02:42:33.273Z,41.53
2022-12-18T02:44:59.982Z,43.47
2022-12-18T02:47:31.332Z,42.33
2022-12-18T02:50:10.319Z,42.25
2022-12-18T02:52:37.343Z,42.63
2022-12-18T02:55:28.322Z,42.33
2022-12-18T02:58:04.754Z,42.78
2022-12-18T03:00:41.642Z,42.90
2022-12-18T03:03:13.053Z,41.65
2022-12-18T03:05:53.900Z,41.17
2022-12-18T03:08:23.221Z,40.85
2022-12-18T03:11:11.459Z,39.67
2022-12-18T03:13:53.600Z,41.42
2022-12-18T03:16:25.636Z,40.53
2022-12-18T03:19:03.247Z,39.03
2022-12-18T03:21:42.249Z,38.92
2022-12-18T03:24:09.435Z,39.83
2022-12-18T03:26:36.984Z,37.30
2022-12-18T03:29:08.965Z,39.13
2022-12-18T03:31:35.598Z,40.30
2022-12-18T03:34:03.741Z,38.65
2022-12-18T03:36:30.412Z,39.97
2022-12-18T03:38:57.063Z,40.30
2022-12-18T03:41:35.128Z,39.67
2022-12-18T03:44:19.554Z,39.45
2022-12-18T03:47:05.128Z,39.10
2022-12-18T03:49:41.934Z,39.30
2022-12-18T03:52:12.060Z,41.45
2022-12-18T03:54:38.774Z,38.45
2022-12-18T03:57:21.007Z,38.03
2022-12-18T03:59:48.813Z,31.77
2022-12-18T04:02:16.547Z,40.97
2022-12-18T04:04:43.272Z,40.40
2022-12-18T04:07:28.461Z,38.83
2022-12-18T04:09:57.509Z,38.20
2022-12-18T04:12:27.588Z,36.67
2022-12-18T04:14:54.247Z,34.67
2022-12-18T04:17:21.383Z,36.88
2022-12-18T04:19:48.051Z,35.80
2022-12-18T04:22:14.844Z,33.38
2022-12-18T04:24:41.493Z,34.80
2022-12-18T04:27:08.221Z,34.20
2022-12-18T04:29:34.879Z,35.28
2022-12-18T04:32:01.714Z,33.55
2022-12-18T04:34:28.424Z,35.47
2022-12-18T04:36:55.121Z,33.10
2022-12-18T04:39:21.784Z,33.40
2022-12-18T04:41:48.459Z,34.35
2022-12-18T04:44:15.230Z,37.08
2022-12-18T04:46:42.159Z,34.40
2022-12-18T04:49:09.037Z,35.22
2022-12-18T04:51:35.680Z,34.60
2022-12-18T04:54:02.668Z,34.40
2022-12-18T04:56:29.454Z,35.35
2022-12-18T04:58:56.181Z,33.28
2022-12-18T05:01:23.090Z,32.65
2022-12-18T05:03:49.993Z,33.33
2022-12-18T05:06:16.693Z,33.42
2022-12-18T05:08:43.397Z,31.98
2022-12-18T05:11:12.100Z,31.55
2022-12-18T05:13:39.541Z,31.65
2022-12-18T05:16:07.120Z,32.55
2022-12-18T05:18:34.075Z,31.73
2022-12-18T05:21:00.751Z,31.35
2022-12-18T05:23:27.819Z,30.08
2022-12-18T05:25:56.313Z,29.02
2022-12-18T05:28:23.485Z,28.75
2022-12-18T05:30:51.694Z,28.13
2022-12-18T05:33:21.793Z,30.45
2022-12-18T05:35:55.792Z,29.02
2022-12-18T05:38:23.379Z,28.02
2022-12-18T05:40:50.807Z,28.88
2022-12-18T05:43:21.207Z,31.33
2022-12-18T05:45:48.617Z,31.45
2022-12-18T05:48:16.115Z,31.63
2022-12-18T05:50:44.972Z,30.17
2022-12-18T05:53:11.760Z,31.83
2022-12-18T05:55:39.945Z,29.77
2022-12-18T05:58:07.444Z,30.08
2022-12-18T06:00:35.996Z,30.92
2022-12-18T06:03:03.305Z,29.77
2022-12-18T06:05:30.092Z,27.83
2022-12-18T06:07:56.743Z,31.88
2022-12-18T06:10:23.470Z,32.78
2022-12-18T06:12:50.177Z,32.90
2022-12-18T06:15:16.946Z,33.33
2022-12-18T06:17:43.875Z,34.10
2022-12-18T06:20:11.313Z,33.20
2022-12-18T06:22:38.074Z,33.30
2022-12-18T06:25:05.569Z,33.20
2022-12-18T06:27:34.986Z,31.73
2022-12-18T06:30:01.963Z,32.70
2022-12-18T06:32:32.142Z,34.85
2022-12-18T06:34:59.018Z,35.45
2022-12-18T06:37:27.236Z,32.65
2022-12-18T06:39:55.409Z,32.08
2022-12-18T06:42:22.153Z,31.88
2022-12-18T06:44:48.874Z,33.42
2022-12-18T06:47:15.663Z,35.28
2022-12-18T06:49:42.548Z,34.40
2022-12-18T06:52:09.972Z,33.97
2022-12-18T06:54:36.910Z,31.67
2022-12-18T06:57:04.519Z,33.20
2022-12-18T06:59:31.181Z,32.28
2022-12-18T07:01:57.881Z,30.73
2022-12-18T07:04:31.636Z,30.65
2022-12-18T07:06:58.633Z,30.25
2022-12-18T07:09:25.679Z,31.08
2022-12-18T07:11:53.341Z,32.10
2022-12-18T07:14:20.297Z,32.20
2022-12-18T07:16:47.179Z,32.83
2022-12-18T07:19:14.023Z,34.70
2022-12-18T07:21:40.790Z,32.28
2022-12-18T07:24:07.802Z,33.58
2022-12-18T07:26:34.496Z,33.05
2022-12-18T07:29:01.480Z,30.88
2022-12-18T07:31:28.514Z,31.55
2022-12-18T07:33:55.415Z,33.40
2022-12-18T07:36:22.174Z,32.35
2022-12-18T07:38:50.093Z,33.55
2022-12-18T07:41:17.403Z,33.72
2022-12-18T07:43:44.639Z,33.17
2022-12-18T07:46:13.549Z,35.60
2022-12-18T07:48:41.949Z,33.83
2022-12-18T07:51:09.054Z,34.08
2022-12-18T07:53:36.883Z,33.53
2022-12-18T07:56:26.593Z,34.25
2022-12-18T07:58:53.125Z,33.00
2022-12-18T08:01:19.900Z,33.45
2022-12-18T08:03:48.157Z,34.83
2022-12-18T08:06:14.949Z,34.83
2022-12-18T08:08:43.293Z,37.47
2022-12-18T08:11:10.068Z,35.60
2022-12-18T08:13:37.094Z,37.40
2022-12-18T08:16:06.275Z,35.50
2022-12-18T08:18:36.905Z,36.13
2022-12-18T08:21:14.764Z,37.60
2022-12-18T08:23:43.262Z,37.50
2022-12-18T08:26:13.940Z,38.17
2022-12-18T08:28:41.297Z,35.47
2022-12-18T08:31:08.600Z,37.42
2022-12-18T08:33:35.901Z,37.85
2022-12-18T08:36:03.052Z,36.20
2022-12-18T08:38:29.810Z,39.80
2022-12-18T08:41:01.241Z,34.92
2022-12-18T08:43:46.774Z,36.90
2022-12-18T08:46:13.673Z,35.53
2022-12-18T08:48:40.382Z,33.30
2022-12-18T08:51:07.286Z,34.83
2022-12-18T08:53:35.800Z,35.47
2022-12-18T08:56:03.385Z,36.10
2022-12-18T08:58:30.410Z,32.22
2022-12-18T09:01:04.401Z,36.38
2022-12-18T09:03:32.197Z,35.38
2022-12-18T09:05:58.965Z,35.45
2022-12-18T09:08:25.697Z,35.38
2022-12-18T09:10:53.060Z,34.58
2022-12-18T09:13:21.155Z,35.13
2022-12-18T09:15:50.255Z,33.83
2022-12-18T09:18:18.831Z,34.00
2022-12-18T09:20:47.315Z,33.15
2022-12-18T09:23:14.869Z,34.78
2022-12-18T09:25:42.353Z,33.58
2022-12-18T09:28:14.717Z,35.03
2022-12-18T09:30:44.497Z,26.35
2022-12-18T09:33:12.023Z,32.35
2022-12-18T09:35:40.287Z,31.45
2022-12-18T09:38:07.862Z,29.98
2022-12-18T09:40:38.330Z,33.55
2022-12-18T09:43:07.404Z,30.20
2022-12-18T09:45:48.457Z,30.25
2022-12-18T09:48:32.508Z,30.83
2022-12-18T09:51:02.942Z,29.70
2022-12-18T09:53:34.800Z,31.88
2022-12-18T09:56:03.909Z,29.52
2022-12-18T09:58:37.818Z,30.88
2022-12-18T10:01:22.218Z,31.60
2022-12-18T10:03:49.338Z,29.00
2022-12-18T10:06:42.487Z,30.48
2022-12-18T10:09:38.447Z,31.95
2022-12-18T10:12:20.759Z,29.50
2022-12-18T10:15:08.363Z,28.70
2022-12-18T10:17:57.097Z,29.23
2022-12-18T10:20:36.875Z,28.58
2022-12-18T10:23:28.309Z,29.50
2022-12-18T10:26:07.251Z,29.20
2022-12-18T10:28:43.882Z,26.95
2022-12-18T10:31:19.153Z,28.83
2022-12-18T10:33:45.949Z,25.88
2022-12-18T10:36:12.659Z,27.30
2022-12-18T10:38:39.990Z,30.48
2022-12-18T10:41:27.428Z,31.92
2022-12-18T10:44:21.383Z,32.83
2022-12-18T10:46:50.309Z,32.97
2022-12-18T10:49:47.328Z,32.33
2022-12-18T10:52:21.062Z,31.85
2022-12-18T10:54:59.301Z,30.10
2022-12-18T10:57:38.028Z,31.05
2022-12-18T11:00:26.137Z,31.58
2022-12-18T11:02:53.406Z,30.00
2022-12-18T11:05:46.734Z,28.65
2022-12-18T11:08:22.510Z,32.00
2022-12-18T11:10:49.128Z,30.00
2022-12-18T11:13:20.246Z,32.40
2022-12-18T11:15:46.953Z,30.35
2022-12-18T11:18:20.244Z,32.28
2022-12-18T11:20:58.544Z,28.20
2022-12-18T11:23:25.644Z,25.50
2022-12-18T11:25:59.115Z,26.90
2022-12-18T11:28:42.717Z,25.67
2022-12-18T11:31:23.742Z,25.27
2022-12-18T11:34:28.456Z,24.92
2022-12-18T11:36:45.964Z,26.70
2022-12-18T11:39:31.815Z,25.48
2022-12-18T11:42:25.528Z,24.73
2022-12-18T11:45:13.980Z,23.40
2022-12-18T11:47:43.289Z,22.30
2022-12-18T11:50:31.509Z,20.25
2022-12-18T11:53:02.853Z,21.27
2022-12-18T11:55:42.769Z,20.95
2022-12-18T11:58:31.537Z,21.05
2022-12-18T12:01:30.997Z,19.73
2022-12-18T12:04:16.050Z,18.40
2022-12-18T12:07:03.351Z,21.10
2022-12-18T12:09:33.889Z,21.05
2022-12-18T12:12:28.535Z,19.92
2022-12-18T12:15:11.549Z,19.45
2022-12-18T12:17:56.001Z,18.85
2022-12-18T12:20:54.138Z,18.42
2022-12-18T12:23:29.704Z,19.23
2022-12-18T12:26:13.117Z,20.17
2022-12-18T12:31:19.332Z,18.98
2022-12-18T12:34:06.381Z,19.85
2022-12-18T12:37:02.370Z,21.65
2022-12-18T12:39:41.461Z,19.73
2022-12-18T12:42:47.685Z,20.25
2022-12-18T12:45:22.882Z,19.52
2022-12-18T12:47:49.764Z,19.40
2022-12-18T12:50:18.747Z,19.55
2022-12-18T12:52:47.974Z,19.95
2022-12-18T12:55:24.180Z,20.30
2022-12-18T12:58:04.324Z,23.02
2022-12-18T13:00:37.111Z,30.17
2022-12-18T13:03:17.242Z,31.50
2022-12-18T13:05:47.599Z,29.73
2022-12-18T13:08:28.125Z,29.13
2022-12-18T13:11:20.059Z,26.85
2022-12-18T13:13:51.019Z,27.63
2022-12-18T13:16:22.506Z,27.58
2022-12-18T13:18:51.167Z,26.25
2022-12-18T13:21:30.646Z,25.02
2022-12-18T13:23:58.447Z,25.83
2022-12-18T13:26:28.805Z,24.63
2022-12-18T13:28:57.458Z,24.52
2022-12-18T13:31:43.536Z,25.52
2022-12-18T13:34:27.503Z,25.92
2022-12-18T13:37:00.743Z,24.00
2022-12-18T13:39:35.906Z,25.03
2022-12-18T13:42:06.795Z,25.50
2022-12-18T13:44:39.943Z,25.65
2022-12-18T13:47:36.932Z,27.33
2022-12-18T13:50:11.521Z,25.15
2022-12-18T13:52:38.938Z,30.10
2022-12-18T13:55:08.578Z,27.52
2022-12-18T13:57:39.577Z,26.60
2022-12-18T14:00:26.740Z,26.15
2022-12-18T14:02:53.771Z,27.65
2022-12-18T14:05:28.564Z,26.42
2022-12-18T14:07:57.038Z,25.83
2022-12-18T14:10:47.605Z,27.55
2022-12-18T14:13:12.414Z,29.13
2022-12-18T14:15:47.159Z,28.15
2022-12-18T14:18:27.923Z,28.77
2022-12-18T14:20:58.182Z,29.73
2022-12-18T14:23:37.156Z,29.85
2022-12-18T14:26:20.474Z,30.27
2022-12-18T14:28:47.713Z,27.23
2022-12-18T14:31:23.133Z,27.42
2022-12-18T14:33:50.717Z,25.30
2022-12-18T14:36:19.455Z,24.35
2022-12-18T14:38:50.842Z,23.80
2022-12-18T14:41:19.085Z,23.17
2022-12-18T14:43:48.836Z,25.98
2022-12-18T14:46:36.337Z,24.27
2022-12-18T14:49:05.611Z,23.55
2022-12-18T14:51:35.411Z,24.65
2022-12-18T14:54:10.905Z,22.27
2022-12-18T14:56:44.576Z,21.25
2022-12-18T14:59:23.808Z,24.25
2022-12-18T15:02:03.232Z,20.73
2022-12-18T15:04:34.859Z,21.02
2022-12-18T15:07:22.040Z,22.60
2022-12-18T15:10:10.131Z,23.10
2022-12-18T15:12:37.883Z,21.95
2022-12-18T15:15:05.759Z,23.40
2022-12-18T15:17:32.526Z,21.02
2022-12-18T15:20:04.991Z,22.60
2022-12-18T15:22:35.236Z,21.90
2022-12-18T15:25:01.963Z,23.15
2022-12-18T15:27:31.883Z,24.30
2022-12-18T15:30:10.778Z,22.63
2022-12-18T15:32:38.320Z,21.83
2022-12-18T15:35:18.268Z,23.65
2022-12-18T15:37:45.298Z,23.38
2022-12-18T15:40:20.728Z,22.92
2022-12-18T15:43:20.171Z,22.33
2022-12-18T15:45:46.824Z,23.10
2022-12-18T15:48:22.832Z,23.48
2022-12-18T15:50:53.998Z,22.70
2022-12-18T15:53:20.728Z,25.75
2022-12-18T15:56:05.841Z,25.25
2022-12-18T15:58:33.985Z,23.42
2022-12-18T16:01:01.454Z,24.50
2022-12-18T16:03:29.485Z,24.73
2022-12-18T16:05:56.383Z,26.40
2022-12-18T16:08:24.467Z,24.90
2022-12-18T16:10:51.123Z,26.95
2022-12-18T16:13:17.809Z,25.17
2022-12-18T16:15:44.546Z,25.88
2022-12-18T16:18:11.342Z,25.05
2022-12-18T16:20:38.319Z,27.02
2022-12-18T16:23:05.279Z,30.75
2022-12-18T16:25:32.130Z,28.30
2022-12-18T16:27:58.991Z,26.33
2022-12-18T16:30:29.426Z,24.45
2022-12-18T16:32:59.999Z,23.92
2022-12-18T16:35:27.519Z,23.33
2022-12-18T16:37:54.367Z,24.90
2022-12-18T16:40:21.124Z,24.80
2022-12-18T16:42:47.900Z,23.67
2022-12-18T16:45:17.229Z,23.75
2022-12-18T16:47:43.996Z,25.17
2022-12-18T16:50:11.082Z,23.70
2022-12-18T16:52:38.428Z,22.38
2022-12-18T16:55:05.638Z,25.17
2022-12-18T16:57:32.334Z,25.17
2022-12-18T17:00:04.685Z,25.92
2022-12-18T17:02:32.812Z,28.27
2022-12-18T17:04:59.729Z,25.80
2022-12-18T17:07:27.107Z,24.15
2022-12-18T17:09:54.351Z,23.42
2022-12-18T17:12:21.668Z,24.80
2022-12-18T17:14:48.671Z,24.25
2022-12-18T17:17:23.813Z,22.27
2022-12-18T17:19:53.243Z,22.45
2022-12-18T17:22:21.151Z,22.15
2022-12-18T17:24:47.861Z,23.55
2022-12-18T17:27:15.038Z,23.27
2022-12-18T17:29:47.415Z,21.33
2022-12-18T17:32:16.001Z,23.73
2022-12-18T17:34:42.671Z,22.45
2022-12-18T17:37:09.570Z,21.55
2022-12-18T17:39:36.337Z,22.48
2022-12-18T17:42:03.245Z,22.35
2022-12-18T17:44:30.119Z,21.55
2022-12-18T17:46:56.980Z,22.80
2022-12-18T17:49:23.694Z,25.75
2022-12-18T17:51:51.620Z,22.08
2022-12-18T17:54:18.289Z,22.33
2022-12-18T17:56:44.991Z,23.08
2022-12-18T17:59:13.398Z,21.25
2022-12-18T18:01:44.450Z,20.45
2022-12-18T18:04:15.455Z,21.58
2022-12-18T18:06:42.378Z,20.92
2022-12-18T18:09:16.190Z,20.98
2022-12-18T18:12:05.989Z,21.58
2022-12-18T18:14:33.174Z,21.77
2022-12-18T18:17:04.150Z,21.63
2022-12-18T18:19:32.277Z,21.27
2022-12-18T18:21:59.202Z,21.25
2022-12-18T18:24:26.503Z,20.85
2022-12-18T18:26:59.612Z,20.80
2022-12-18T18:29:27.768Z,20.95
2022-12-18T18:31:56.098Z,21.70
2022-12-18T18:34:25.125Z,23.38
2022-12-18T18:36:52.245Z,22.38
2022-12-18T18:39:21.605Z,20.83
2022-12-18T18:41:48.949Z,21.30
2022-12-18T18:44:17.788Z,22.17
2022-12-18T18:46:45.074Z,21.77
2022-12-18T18:49:13.848Z,21.25
2022-12-18T18:51:42.037Z,22.50
2022-12-18T18:54:09.663Z,22.27
2022-12-18T18:57:04.146Z,20.63
2022-12-18T18:59:31.888Z,20.88
2022-12-18T19:02:04.029Z,20.83
2022-12-18T19:04:33.574Z,21.33
2022-12-18T19:07:01.180Z,22.00
2022-12-18T19:09:30.187Z,21.27
2022-12-18T19:12:16.371Z,20.95
2022-12-18T19:14:44.441Z,20.80
2022-12-18T19:17:11.964Z,21.17
2022-12-18T19:19:39.557Z,23.02
2022-12-18T19:22:07.222Z,23.20
2022-12-18T19:24:34.481Z,21.60
2022-12-18T19:27:01.799Z,22.48
2022-12-18T19:29:28.998Z,21.23
2022-12-18T19:31:56.182Z,20.88
2022-12-18T19:34:23.550Z,20.20
2022-12-18T19:36:54.027Z,21.80
2022-12-18T19:41:52.086Z,20.55
2022-12-18T19:44:19.456Z,22.50
2022-12-18T19:46:46.934Z,19.90
2022-12-18T19:49:17.691Z,21.35
2022-12-18T19:52:01.593Z,21.17
2022-12-18T19:54:28.223Z,21.13
2022-12-18T19:56:54.930Z,22.90
2022-12-18T19:59:21.616Z,21.60
2022-12-18T20:04:32.151Z,22.48
2022-12-18T20:06:59.158Z,22.10
2022-12-18T20:09:26.089Z,21.50
2022-12-18T20:11:53.098Z,20.55
2022-12-18T20:14:22.673Z,21.65
2022-12-18T20:16:50.783Z,21.63
2022-12-18T20:19:18.477Z,20.05
2022-12-18T20:21:45.934Z,20.83
2022-12-18T20:24:13.123Z,20.75
2022-12-18T20:26:42.470Z,20.98
2022-12-18T20:29:09.299Z,21.90
2022-12-18T20:31:36.134Z,20.25
2022-12-18T20:34:05.024Z,21.05
2022-12-18T20:36:37.695Z,19.90
2022-12-18T20:39:06.409Z,18.63
2022-12-18T20:41:38.001Z,18.83
2022-12-18T20:44:13.431Z,18.50
2022-12-18T20:46:55.568Z,19.88
2022-12-18T20:49:22.835Z,19.48
2022-12-18T20:51:53.312Z,18.27
2022-12-18T20:54:21.095Z,19.25
2022-12-18T20:56:47.841Z,18.92
2022-12-18T20:59:14.570Z,18.95
2022-12-18T21:01:48.639Z,19.60
2022-12-18T21:04:17.429Z,20.15
2022-12-18T21:06:49.628Z,21.75
2022-12-18T21:09:20.473Z,23.58
2022-12-18T21:12:05.723Z,20.50
2022-12-18T21:14:32.530Z,20.02
2022-12-18T21:17:03.112Z,20.55
2022-12-18T21:19:30.113Z,20.73
2022-12-18T21:21:57.512Z,19.92
2022-12-18T21:24:25.058Z,19.55
2022-12-18T21:26:54.245Z,19.75
2022-12-18T21:29:24.853Z,20.23
2022-12-18T21:31:53.729Z,22.05
2022-12-18T21:34:30.943Z,22.40
2022-12-18T21:36:59.036Z,21.20
2022-12-18T21:39:26.707Z,20.55
2022-12-18T21:42:12.938Z,18.92
2022-12-18T21:44:42.069Z,19.20
2022-12-18T21:47:22.201Z,19.90
2022-12-18T21:49:52.080Z,21.27
2022-12-18T21:52:18.897Z,20.13
2022-12-18T21:54:45.642Z,21.60
2022-12-18T21:57:13.811Z,20.95
2022-12-18T21:59:41.902Z,21.52
2022-12-18T22:02:19.780Z,21.23
2022-12-18T22:04:47.167Z,19.02
2022-12-18T22:07:15.015Z,20.48
2022-12-18T22:09:42.028Z,20.83
2022-12-18T22:12:10.236Z,19.95
2022-12-18T22:14:36.893Z,18.85
2022-12-18T22:17:03.974Z,20.63
2022-12-18T22:19:31.869Z,19.00
2022-12-18T22:21:58.587Z,18.90
2022-12-18T22:24:26.739Z,20.95
2022-12-18T22:26:55.836Z,19.95
2022-12-18T22:29:47.038Z,19.55
2022-12-18T22:32:16.506Z,20.08
2022-12-18T22:34:45.063Z,21.23
2022-12-18T22:37:14.877Z,22.48
2022-12-18T22:39:41.601Z,20.85
2022-12-18T22:42:08.513Z,21.67
2022-12-18T22:44:35.243Z,20.70
2022-12-18T22:47:06.802Z,21.85
2022-12-18T22:49:35.240Z,21.00
2022-12-18T22:52:04.702Z,20.60
2022-12-18T22:54:31.409Z,19.35
2022-12-18T22:56:58.154Z,20.92
2022-12-18T22:59:24.962Z,20.05
2022-12-18T23:01:58.523Z,19.10
2022-12-18T23:04:36.024Z,19.92
2022-12-18T23:07:05.191Z,20.02
2022-12-18T23:09:32.250Z,20.77
2022-12-18T23:11:59.094Z,20.65
2022-12-18T23:14:25.982Z,19.42
2022-12-18T23:16:53.223Z,20.13
2022-12-18T23:19:20.649Z,20.45
2022-12-18T23:21:47.443Z,20.58
2022-12-18T23:24:14.450Z,21.23
2022-12-18T23:26:41.274Z,22.00
2022-12-18T23:29:08.001Z,21.67
2022-12-18T23:31:39.311Z,20.40
2022-12-18T23:34:06.935Z,20.85
2022-12-18T23:36:45.915Z,20.25
2022-12-18T23:39:17.986Z,21.20
2022-12-18T23:41:56.274Z,19.03
2022-12-18T23:44:23.037Z,18.70
2022-12-18T23:46:49.736Z,20.63
2022-12-18T23:49:16.515Z,20.75
2022-12-18T23:51:43.488Z,21.13
2022-12-18T23:54:10.524Z,21.58
2022-12-18T23:56:37.198Z,21.00
2022-12-18T23:59:03.905Z,20.98
